Time;durP1;ratioP1;P1;durP2;ratioP2;P2;SDS_P1;SDS_P2;PMS_P1;PMS_P2;Temp;Humidity;BMP_temperature;BMP_pressure;BME280_temperature;BME280_humidity;BME280_pressure;Samples;Min_cycle;Max_cycle;Signal;HPM_P1;HPM_P2
2023/05/16 00:01:36;;;;;;;2.40;2.40;;;20.50;70.00;;;;;;5086584;28;43406;-70
2023/05/16 00:04:05;;;;;;;2.50;2.50;;;20.50;70.00;;;;;;5079588;28;43461;-70
2023/05/16 00:06:33;;;;;;;2.50;2.50;;;20.50;69.90;;;;;;5081439;27;43857;-70
2023/05/16 00:09:01;;;;;;;2.70;2.70;;;20.40;70.00;;;;;;5074017;28;43360;-70
2023/05/16 00:11:29;;;;;;;2.60;2.60;;;20.30;70.50;;;;;;5084790;28;43450;-70
2023/05/16 00:13:57;;;;;;;2.90;2.90;;;20.30;70.80;;;;;;5078776;28;43494;-69
2023/05/16 00:16:28;;;;;;;2.57;2.57;;;20.20;71.30;;;;;;5078919;28;44292;-70
2023/05/16 00:18:58;;;;;;;2.63;2.63;;;20.20;70.60;;;;;;5082879;28;44582;-70
2023/05/16 00:21:26;;;;;;;2.60;2.60;;;20.20;70.70;;;;;;5078228;28;43352;-70
2023/05/16 00:23:54;;;;;;;2.40;2.40;;;20.20;71.10;;;;;;5078866;28;44122;-70
2023/05/16 00:26:22;;;;;;;2.80;2.80;;;20.10;71.10;;;;;;5078947;28;43933;-70
2023/05/16 00:28:50;;;;;;;2.50;2.50;;;20.10;71.00;;;;;;5079663;28;43349;-70
2023/05/16 00:31:18;;;;;;;2.70;2.70;;;20.10;70.90;;;;;;5080226;28;43426;-70
2023/05/16 00:33:47;;;;;;;2.77;2.77;;;20.10;70.90;;;;;;5073983;28;43669;-70
2023/05/16 00:36:15;;;;;;;2.70;2.70;;;20.00;71.20;;;;;;5082119;28;43914;-70
2023/05/16 00:38:47;;;;;;;2.50;2.50;;;20.10;71.40;;;;;;5077823;27;43392;-70
2023/05/16 00:41:15;;;;;;;2.63;2.63;;;20.20;71.20;;;;;;5083378;28;43409;-70
2023/05/16 00:43:43;;;;;;;2.60;2.60;;;20.20;70.90;;;;;;5080067;28;43654;-70
2023/05/16 00:46:11;;;;;;;2.60;2.60;;;20.30;70.80;;;;;;5082098;28;44959;-70
2023/05/16 00:48:39;;;;;;;3.00;2.97;;;20.30;70.50;;;;;;5081563;27;43373;-70
2023/05/16 00:51:08;;;;;;;2.73;2.73;;;20.20;70.60;;;;;;5079628;28;43394;-70
2023/05/16 00:53:36;;;;;;;2.83;2.80;;;20.20;70.70;;;;;;5072768;28;43497;-69
2023/05/16 00:56:05;;;;;;;2.60;2.60;;;20.20;70.60;;;;;;5067722;28;45904;-69
2023/05/16 00:58:33;;;;;;;2.60;2.60;;;20.20;70.50;;;;;;5079992;28;43393;-69
2023/05/16 01:01:04;;;;;;;2.30;2.30;;;20.20;70.60;;;;;;5082612;28;43434;-69
2023/05/16 01:03:33;;;;;;;2.77;2.77;;;20.10;70.80;;;;;;5076707;28;43680;-72
2023/05/16 01:06:01;;;;;;;2.20;2.20;;;20.10;71.00;;;;;;5079679;28;43819;-69
2023/05/16 01:08:30;;;;;;;2.43;2.43;;;20.10;70.90;;;;;;5078373;27;44706;-70
2023/05/16 01:11:02;;;;;;;2.30;2.30;;;20.10;70.90;;;;;;5087523;28;43473;-69
2023/05/16 01:13:33;;;;;;;2.67;2.67;;;20.10;70.90;;;;;;5082997;28;43612;-69
2023/05/16 01:16:05;;;;;;;2.60;2.60;;;20.00;71.20;;;;;;5085997;28;43735;-69
2023/05/16 01:18:37;;;;;;;2.90;2.80;;;20.10;71.30;;;;;;5082820;27;43402;-70
2023/05/16 01:21:08;;;;;;;2.67;2.67;;;20.20;71.90;;;;;;5088631;28;43401;-70
2023/05/16 01:23:49;;;;;;;2.53;2.50;;;20.20;70.70;;;;;;5083170;28;43516;-69
2023/05/16 01:26:20;;;;;;;2.57;2.47;;;20.30;70.60;;;;;;5086365;27;43619;-69
2023/05/16 01:28:48;;;;;;;2.40;2.40;;;20.30;70.40;;;;;;5084041;28;44613;-69
2023/05/16 01:31:17;;;;;;;2.33;2.33;;;20.20;70.60;;;;;;5097239;27;43977;-69
2023/05/16 01:33:46;;;;;;;2.50;2.50;;;20.30;70.70;;;;;;5084897;27;43513;-70
2023/05/16 01:36:18;;;;;;;2.50;2.50;;;20.20;70.50;;;;;;5085784;28;43922;-69
2023/05/16 01:38:53;;;;;;;2.43;2.43;;;20.20;70.50;;;;;;5080110;28;43672;-69
2023/05/16 01:41:24;;;;;;;2.57;2.57;;;20.10;70.50;;;;;;5083480;28;43398;-69
2023/05/16 01:43:57;;;;;;;2.43;2.43;;;20.10;71.00;;;;;;5084474;28;43946;-69
2023/05/16 01:46:28;;;;;;;2.20;2.20;;;20.10;71.00;;;;;;5085353;28;45684;-70
2023/05/16 01:49:02;;;;;;;2.30;2.30;;;20.10;70.80;;;;;;5082256;28;43423;-70
2023/05/16 01:51:30;;;;;;;2.40;2.40;;;20.10;70.80;;;;;;5083234;28;43463;-69
2023/05/16 01:54:00;;;;;;;2.20;2.20;;;20.10;70.90;;;;;;5083833;28;43493;-69
2023/05/16 01:56:30;;;;;;;2.33;2.33;;;20.00;71.20;;;;;;5074558;28;43994;-69
2023/05/16 01:58:58;;;;;;;2.50;2.50;;;20.10;71.30;;;;;;5077328;28;44739;-70
2023/05/16 02:01:26;;;;;;;2.00;2.00;;;20.20;71.10;;;;;;5084022;27;43406;-71
2023/05/16 02:03:54;;;;;;;2.20;2.20;;;20.30;70.50;;;;;;5074771;28;43965;-70
2023/05/16 02:06:22;;;;;;;2.30;2.30;;;20.40;70.30;;;;;;5084204;28;45826;-70
2023/05/16 02:08:50;;;;;;;2.50;2.50;;;20.40;70.20;;;;;;5084737;28;44971;-70
2023/05/16 02:11:22;;;;;;;2.20;2.20;;;20.30;70.00;;;;;;5088728;27;43721;-70
2023/05/16 02:13:51;;;;;;;2.30;2.30;;;20.30;70.10;;;;;;5083531;28;43596;-70
2023/05/16 02:16:19;;;;;;;2.10;2.10;;;20.20;70.20;;;;;;5085023;27;45807;-70
2023/05/16 02:18:47;;;;;;;2.10;2.10;;;20.20;70.70;;;;;;5079160;27;44505;-70
2023/05/16 02:21:15;;;;;;;2.37;2.37;;;20.20;70.80;;;;;;5074494;28;43404;-70
2023/05/16 02:23:43;;;;;;;2.07;2.07;;;20.10;70.60;;;;;;5085007;27;43877;-70
2023/05/16 02:26:11;;;;;;;2.03;2.03;;;20.10;70.70;;;;;;5081283;28;45717;-70
2023/05/16 02:28:39;;;;;;;2.20;2.20;;;20.10;70.80;;;;;;5083479;28;44502;-70
2023/05/16 02:31:10;;;;;;;2.30;2.30;;;20.00;71.10;;;;;;5080113;28;43449;-70
2023/05/16 02:33:38;;;;;;;2.30;2.30;;;20.00;71.10;;;;;;5079291;27;43465;-70
2023/05/16 02:36:07;;;;;;;2.03;2.03;;;20.00;71.00;;;;;;5080948;28;45285;-70
2023/05/16 02:38:34;;;;;;;2.03;2.03;;;20.00;71.00;;;;;;5082910;27;45402;-70
2023/05/16 02:41:02;;;;;;;2.00;2.00;;;20.00;71.00;;;;;;5083937;28;43435;-72
2023/05/16 02:43:30;;;;;;;2.17;2.17;;;20.00;71.30;;;;;;5088794;27;43939;-70
2023/05/16 02:45:58;;;;;;;2.10;2.10;;;20.00;71.40;;;;;;5080787;27;45672;-70
2023/05/16 02:48:28;;;;;;;1.87;1.87;;;20.10;71.20;;;;;;5084004;27;43465;-70
2023/05/16 02:50:58;;;;;;;2.30;2.30;;;20.20;70.70;;;;;;5083684;27;43425;-70
2023/05/16 02:53:26;;;;;;;1.90;1.90;;;20.30;70.30;;;;;;5067069;28;43546;-70
2023/05/16 02:55:54;;;;;;;2.00;2.00;;;20.40;70.20;;;;;;5081935;28;43916;-70
2023/05/16 02:58:22;;;;;;;1.80;1.80;;;20.30;70.00;;;;;;5084777;28;43568;-70
2023/05/16 03:00:51;;;;;;;2.07;2.07;;;20.30;70.10;;;;;;5081644;28;43433;-70
2023/05/16 03:03:19;;;;;;;1.90;1.90;;;20.20;70.20;;;;;;5075011;28;43415;-70
2023/05/16 03:05:50;;;;;;;2.13;2.13;;;20.20;70.50;;;;;;5082858;28;46127;-70
2023/05/16 03:08:18;;;;;;;2.00;2.00;;;20.10;70.80;;;;;;5086228;27;43539;-69
2023/05/16 03:10:46;;;;;;;1.80;1.80;;;20.10;70.80;;;;;;5084037;28;43378;-70
2023/05/16 03:13:13;;;;;;;1.93;1.93;;;20.10;70.80;;;;;;5084002;28;43407;-71
2023/05/16 03:15:44;;;;;;;1.90;1.90;;;20.00;70.80;;;;;;5071437;28;45771;-70
2023/05/16 03:18:12;;;;;;;2.03;2.03;;;20.00;70.90;;;;;;5068649;28;44597;-70
2023/05/16 03:20:42;;;;;;;1.90;1.90;;;20.00;71.20;;;;;;5070221;28;43419;-70
2023/05/16 03:23:12;;;;;;;1.80;1.80;;;20.10;71.10;;;;;;5075878;28;43560;-70
2023/05/16 03:25:42;;;;;;;1.80;1.80;;;20.10;71.50;;;;;;5082952;28;46037;-70
2023/05/16 03:28:09;;;;;;;1.97;1.97;;;20.20;70.70;;;;;;5085779;28;43464;-70
2023/05/16 03:30:40;;;;;;;1.90;1.90;;;20.20;70.50;;;;;;5084478;27;43438;-70
2023/05/16 03:33:08;;;;;;;1.70;1.70;;;20.10;70.70;;;;;;5077675;28;43742;-70
2023/05/16 03:35:37;;;;;;;1.70;1.70;;;20.20;70.80;;;;;;5086553;28;43659;-70
2023/05/16 03:38:05;;;;;;;1.77;1.77;;;20.10;70.50;;;;;;5085752;28;43284;-70
2023/05/16 03:40:34;;;;;;;1.80;1.80;;;20.10;70.50;;;;;;5083663;28;43455;-73
2023/05/16 03:43:02;;;;;;;1.77;1.77;;;20.10;70.70;;;;;;5085467;28;43382;-72
2023/05/16 03:45:30;;;;;;;1.83;1.83;;;20.00;70.90;;;;;;5069781;27;43831;-70
2023/05/16 03:47:59;;;;;;;1.67;1.67;;;20.00;71.10;;;;;;5079316;28;43394;-70
2023/05/16 03:50:27;;;;;;;1.70;1.70;;;20.00;70.90;;;;;;5086118;28;43386;-70
2023/05/16 03:52:59;;;;;;;1.80;1.80;;;20.00;70.90;;;;;;5073000;28;43537;-70
2023/05/16 03:55:27;;;;;;;1.90;1.90;;;20.00;71.00;;;;;;5080038;27;43756;-70
2023/05/16 03:57:57;;;;;;;1.80;1.80;;;20.00;71.30;;;;;;5082260;28;44743;-70
2023/05/16 04:00:25;;;;;;;1.90;1.90;;;20.00;71.30;;;;;;5081755;27;43476;-70
2023/05/16 04:02:53;;;;;;;2.10;2.00;;;20.10;71.10;;;;;;5086261;28;43454;-70
2023/05/16 04:05:21;;;;;;;2.10;2.00;;;20.20;70.70;;;;;;5080594;28;43883;-70
2023/05/16 04:07:49;;;;;;;1.90;1.90;;;20.20;70.50;;;;;;5081487;28;44828;-70
2023/05/16 04:10:18;;;;;;;2.20;2.10;;;20.20;70.30;;;;;;5082165;27;43388;-70
2023/05/16 04:12:46;;;;;;;2.27;2.17;;;20.10;70.60;;;;;;5083777;28;43405;-70
2023/05/16 04:15:15;;;;;;;2.33;2.20;;;20.10;70.70;;;;;;5085345;28;45982;-70
2023/05/16 04:17:43;;;;;;;2.60;2.40;;;20.10;70.60;;;;;;5084461;28;43286;-70
2023/05/16 04:20:14;;;;;;;2.40;2.30;;;20.10;70.50;;;;;;5064754;28;43499;-70
2023/05/16 04:22:42;;;;;;;2.43;2.33;;;20.10;71.40;;;;;;5071785;28;43414;-70
2023/05/16 04:25:11;;;;;;;2.70;2.50;;;20.00;71.00;;;;;;5087511;28;43931;-70
2023/05/16 04:27:39;;;;;;;2.60;2.40;;;20.00;71.10;;;;;;5070420;28;44718;-70
2023/05/16 04:30:08;;;;;;;2.60;2.40;;;20.00;71.30;;;;;;5086238;28;44012;-70
2023/05/16 04:32:37;;;;;;;2.30;2.20;;;20.00;71.00;;;;;;5077401;28;43540;-70
2023/05/16 04:35:07;;;;;;;3.17;2.90;;;20.00;71.00;;;;;;5072747;27;44735;-70
2023/05/16 04:37:36;;;;;;;2.87;2.73;;;19.90;71.20;;;;;;5078191;28;44132;-70
2023/05/16 04:40:06;;;;;;;2.97;2.83;;;20.00;71.30;;;;;;5070463;28;43371;-70
2023/05/16 04:42:34;;;;;;;2.80;2.60;;;20.00;70.90;;;;;;5061484;28;43538;-71
2023/05/16 04:45:05;;;;;;;4.23;2.77;;;20.10;70.70;;;;;;5064706;28;43992;-72
2023/05/16 04:47:33;;;;;;;3.13;2.93;;;20.20;70.60;;;;;;5071550;28;43405;-70
2023/05/16 04:50:05;;;;;;;2.97;2.77;;;20.10;70.60;;;;;;5077965;28;43756;-72
2023/05/16 04:52:33;;;;;;;2.50;2.40;;;20.10;70.80;;;;;;5080699;28;43479;-70
2023/05/16 04:55:01;;;;;;;3.00;2.90;;;20.10;70.70;;;;;;5075792;28;44031;-70
2023/05/16 04:57:30;;;;;;;3.10;2.90;;;20.10;70.60;;;;;;5088083;27;43433;-70
2023/05/16 04:59:58;;;;;;;3.13;2.90;;;20.00;70.60;;;;;;5073376;28;43629;-70
2023/05/16 05:02:26;;;;;;;2.97;2.83;;;20.00;70.90;;;;;;5091777;27;43461;-70
2023/05/16 05:04:54;;;;;;;3.03;2.83;;;20.00;71.10;;;;;;5084722;28;43747;-71
2023/05/16 05:07:27;;;;;;;3.20;3.00;;;20.00;71.00;;;;;;5085232;28;44838;-70
2023/05/16 05:09:55;;;;;;;3.27;2.97;;;20.00;70.90;;;;;;5085025;27;43407;-70
2023/05/16 05:12:24;;;;;;;3.27;3.07;;;19.90;70.90;;;;;;5088330;27;43478;-70
2023/05/16 05:14:51;;;;;;;2.97;2.80;;;19.90;71.10;;;;;;5080387;28;45627;-70
2023/05/16 05:17:20;;;;;;;3.20;2.93;;;19.90;71.30;;;;;;5088649;28;43535;-70
2023/05/16 05:19:48;;;;;;;3.10;2.90;;;20.00;71.20;;;;;;5088710;27;43825;-70
2023/05/16 05:22:16;;;;;;;3.10;2.80;;;20.10;70.80;;;;;;5077320;28;43540;-69
2023/05/16 05:24:45;;;;;;;3.10;2.90;;;20.20;70.30;;;;;;5083886;28;46161;-69
2023/05/16 05:27:13;;;;;;;3.30;3.00;;;20.30;70.10;;;;;;5084901;27;43430;-70
2023/05/16 05:29:41;;;;;;;2.83;2.63;;;20.30;70.00;;;;;;5082826;28;44105;-69
2023/05/16 05:32:09;;;;;;;3.10;3.00;;;20.20;70.00;;;;;;5086769;27;43502;-71
2023/05/16 05:34:39;;;;;;;3.13;2.83;;;20.20;70.10;;;;;;5068419;28;43821;-69
2023/05/16 05:37:09;;;;;;;3.20;3.00;;;20.10;70.30;;;;;;5085744;28;43541;-70
2023/05/16 05:39:37;;;;;;;2.80;2.70;;;20.10;70.70;;;;;;5082068;27;43452;-69
2023/05/16 05:42:06;;;;;;;3.10;2.90;;;20.10;71.50;;;;;;5078435;28;43940;-70
2023/05/16 05:44:36;;;;;;;3.07;2.77;;;20.00;70.60;;;;;;5086594;28;43656;-70
2023/05/16 05:47:04;;;;;;;2.53;2.43;;;20.00;70.70;;;;;;5085220;27;43502;-69
2023/05/16 05:49:32;;;;;;;3.60;3.30;;;20.00;70.80;;;;;;5087382;28;43402;-70
2023/05/16 05:52:00;;;;;;;3.03;2.93;;;19.90;71.00;;;;;;5086671;28;43431;-69
2023/05/16 05:54:29;;;;;;;3.10;2.90;;;20.00;71.10;;;;;;5082575;27;43602;-69
2023/05/16 05:56:57;;;;;;;3.07;2.87;;;19.90;70.90;;;;;;5082995;28;43720;-69
2023/05/16 05:59:26;;;;;;;2.90;2.70;;;20.00;71.10;;;;;;5086380;28;43497;-70
2023/05/16 06:01:54;;;;;;;2.57;2.47;;;19.90;71.00;;;;;;5086627;28;43497;-69
2023/05/16 06:04:22;;;;;;;3.10;3.00;;;19.90;71.90;;;;;;5084449;27;43590;-69
2023/05/16 06:06:50;;;;;;;2.47;2.37;;;19.90;71.20;;;;;;5087427;28;43340;-70
2023/05/16 06:09:18;;;;;;;3.00;2.80;;;19.90;71.10;;;;;;5079954;27;43426;-70
2023/05/16 06:11:46;;;;;;;2.93;2.73;;;19.90;71.00;;;;;;5077484;28;43396;-69
2023/05/16 06:14:14;;;;;;;2.87;2.67;;;19.90;71.10;;;;;;5083365;28;46061;-69
2023/05/16 06:16:43;;;;;;;2.40;2.30;;;19.90;71.20;;;;;;5086260;28;43493;-70
2023/05/16 06:19:14;;;;;;;2.53;2.43;;;19.80;71.40;;;;;;5085466;28;43368;-69
2023/05/16 06:21:43;;;;;;;2.60;2.47;;;19.90;71.30;;;;;;5080923;28;43780;-69
2023/05/16 06:24:11;;;;;;;2.67;2.57;;;20.00;71.00;;;;;;5083904;27;43855;-69
2023/05/16 06:26:39;;;;;;;2.40;2.30;;;20.20;70.70;;;;;;5088400;28;43408;-69
2023/05/16 06:29:07;;;;;;;2.83;2.50;;;20.30;70.10;;;;;;5084930;28;43362;-70
2023/05/16 06:31:35;;;;;;;2.53;2.33;;;20.30;69.90;;;;;;5084162;28;43548;-69
2023/05/16 06:34:04;;;;;;;2.40;2.30;;;20.30;69.80;;;;;;5081818;27;43886;-70
2023/05/16 06:36:33;;;;;;;2.20;2.10;;;20.30;69.80;;;;;;5085609;28;43398;-72
2023/05/16 06:39:01;;;;;;;2.63;2.40;;;20.20;70.00;;;;;;5084298;28;43862;-69
2023/05/16 06:41:31;;;;;;;2.80;2.60;;;20.10;70.40;;;;;;5088131;27;43373;-69
2023/05/16 06:43:59;;;;;;;2.83;2.63;;;20.20;70.60;;;;;;5084994;28;44346;-69
2023/05/16 06:46:27;;;;;;;2.50;2.40;;;20.10;70.40;;;;;;5074882;28;43926;-69
2023/05/16 06:48:55;;;;;;;2.30;2.20;;;20.00;70.40;;;;;;5081225;28;43465;-69
2023/05/16 06:51:25;;;;;;;2.73;2.53;;;20.00;70.60;;;;;;5087607;28;43453;-71
2023/05/16 06:53:53;;;;;;;2.67;2.57;;;20.00;70.80;;;;;;5083437;27;43758;-69
2023/05/16 06:56:21;;;;;;;2.30;2.20;;;20.00;71.10;;;;;;5083418;28;44807;-69
2023/05/16 06:58:49;;;;;;;2.40;2.30;;;20.00;70.90;;;;;;5081856;28;43437;-69
2023/05/16 07:01:17;;;;;;;2.67;2.47;;;20.00;70.90;;;;;;5083179;28;43364;-69
2023/05/16 07:03:45;;;;;;;2.83;2.53;;;19.90;70.90;;;;;;5085028;28;45497;-69
2023/05/16 07:06:13;;;;;;;2.47;2.37;;;19.90;71.00;;;;;;5086920;28;44805;-69
2023/05/16 07:08:43;;;;;;;2.23;2.13;;;19.90;71.30;;;;;;5074625;28;43386;-69
2023/05/16 07:11:11;;;;;;;2.00;2.00;;;19.90;71.10;;;;;;5078907;28;43941;-68
2023/05/16 07:13:39;;;;;;;2.20;2.10;;;20.00;70.80;;;;;;5082912;28;46137;-69
2023/05/16 07:16:07;;;;;;;2.23;2.13;;;20.10;70.50;;;;;;5075106;28;43435;-69
2023/05/16 07:18:35;;;;;;;2.27;2.17;;;20.10;70.40;;;;;;5083949;28;43360;-69
2023/05/16 07:21:03;;;;;;;2.43;2.33;;;20.10;70.40;;;;;;5083822;27;43433;-69
2023/05/16 07:23:31;;;;;;;2.73;2.60;;;20.10;70.70;;;;;;5083242;28;46954;-69
2023/05/16 07:26:01;;;;;;;2.27;2.17;;;20.10;70.70;;;;;;5088785;28;43378;-69
2023/05/16 07:28:29;;;;;;;2.63;2.43;;;20.10;70.60;;;;;;5081865;27;43499;-69
2023/05/16 07:30:59;;;;;;;2.10;2.00;;;20.00;70.50;;;;;;5089937;28;43572;-69
2023/05/16 07:33:27;;;;;;;2.30;2.10;;;20.00;70.70;;;;;;5077056;28;45939;-69
2023/05/16 07:35:55;;;;;;;2.20;2.10;;;19.90;70.90;;;;;;5086231;28;43365;-69
2023/05/16 07:38:35;;;;;;;2.10;2.00;;;19.90;70.90;;;;;;5083541;28;43418;-70
2023/05/16 07:41:05;;;;;;;2.40;2.30;;;20.00;70.80;;;;;;5078534;28;43379;-72
2023/05/16 07:43:34;;;;;;;2.20;2.10;;;19.90;70.90;;;;;;5083103;27;43610;-70
2023/05/16 07:46:02;;;;;;;2.20;2.10;;;19.90;70.90;;;;;;5081010;27;43387;-70
2023/05/16 07:48:30;;;;;;;2.30;2.20;;;19.90;71.20;;;;;;5074137;28;43439;-70
2023/05/16 07:50:58;;;;;;;2.53;2.30;;;19.90;71.10;;;;;;5084714;27;43353;-70
2023/05/16 07:53:26;;;;;;;2.30;2.20;;;20.00;70.80;;;;;;5086849;27;43859;-70
2023/05/16 07:55:54;;;;;;;2.40;2.30;;;20.20;70.40;;;;;;5086767;27;43762;-70
2023/05/16 07:58:23;;;;;;;2.33;2.23;;;20.20;70.00;;;;;;5080428;28;43376;-70
2023/05/16 08:00:52;;;;;;;2.20;2.10;;;20.30;70.00;;;;;;5077227;28;44227;-70
2023/05/16 08:03:19;;;;;;;2.20;2.10;;;20.30;69.90;;;;;;5075883;28;45346;-70
2023/05/16 08:05:50;;;;;;;2.10;2.00;;;20.20;70.00;;;;;;5077536;28;43900;-70
2023/05/16 08:08:18;;;;;;;1.90;1.80;;;20.10;70.10;;;;;;5082421;28;43515;-70
2023/05/16 08:10:46;;;;;;;2.23;2.13;;;20.00;70.50;;;;;;5085256;28;43347;-70
2023/05/16 08:13:14;;;;;;;1.90;1.80;;;20.00;70.60;;;;;;5087224;27;43765;-71
2023/05/16 08:15:43;;;;;;;2.10;2.00;;;20.00;70.60;;;;;;5090945;27;44072;-69
2023/05/16 08:18:12;;;;;;;1.90;1.80;;;20.00;70.70;;;;;;5087303;28;43414;-70
2023/05/16 08:20:41;;;;;;;2.00;1.90;;;19.90;70.70;;;;;;5087063;27;43477;-70
2023/05/16 08:23:09;;;;;;;1.70;1.70;;;19.90;71.10;;;;;;5088275;28;43755;-70
2023/05/16 08:25:37;;;;;;;2.20;2.10;;;19.90;71.10;;;;;;5083574;28;44924;-70
2023/05/16 08:28:05;;;;;;;1.67;1.67;;;19.90;70.90;;;;;;5088611;28;43429;-70
2023/05/16 08:30:33;;;;;;;1.90;1.90;;;19.90;70.90;;;;;;5088066;27;43515;-70
2023/05/16 08:33:04;;;;;;;2.00;1.90;;;19.90;71.00;;;;;;5090983;28;43743;-70
2023/05/16 08:35:34;;;;;;;2.10;2.00;;;19.80;71.10;;;;;;5087095;28;43411;-70
2023/05/16 08:38:02;;;;;;;1.80;1.80;;;19.90;71.30;;;;;;5085971;27;43438;-71
2023/05/16 08:40:30;;;;;;;2.10;2.00;;;19.90;70.90;;;;;;5071419;28;44009;-70
2023/05/16 08:42:58;;;;;;;1.90;1.80;;;20.10;70.60;;;;;;5084406;27;43787;-70
2023/05/16 08:45:26;;;;;;;2.20;2.10;;;20.20;70.30;;;;;;5085253;28;43416;-70
2023/05/16 08:47:55;;;;;;;2.03;1.93;;;20.20;70.00;;;;;;5079537;27;43416;-70
2023/05/16 08:50:25;;;;;;;2.17;2.07;;;20.20;69.90;;;;;;5087025;28;43494;-69
2023/05/16 08:52:53;;;;;;;2.10;2.00;;;20.10;70.00;;;;;;5084555;28;44709;-70
2023/05/16 08:55:21;;;;;;;2.40;2.30;;;20.10;70.20;;;;;;5086449;28;43430;-70
2023/05/16 08:57:50;;;;;;;2.00;2.00;;;20.00;70.50;;;;;;5088426;28;43374;-70
2023/05/16 09:00:19;;;;;;;1.70;1.70;;;20.00;70.80;;;;;;5081126;28;43490;-70
2023/05/16 09:02:47;;;;;;;1.93;1.83;;;20.00;70.70;;;;;;5087549;27;44084;-69
2023/05/16 09:05:15;;;;;;;1.57;1.57;;;20.00;70.70;;;;;;5088901;27;43342;-70
2023/05/16 09:07:45;;;;;;;1.90;1.80;;;19.90;70.70;;;;;;5085915;27;43381;-70
2023/05/16 09:10:13;;;;;;;1.87;1.77;;;19.90;70.90;;;;;;5087409;27;43532;-70
2023/05/16 09:12:42;;;;;;;1.53;1.53;;;19.80;71.10;;;;;;5086306;28;43760;-70
2023/05/16 09:15:10;;;;;;;1.70;1.70;;;19.90;71.10;;;;;;5088981;28;43581;-70
2023/05/16 09:17:39;;;;;;;1.67;1.67;;;20.00;70.80;;;;;;5076823;28;43391;-70
2023/05/16 09:20:12;;;;;;;1.60;1.60;;;20.00;70.60;;;;;;5057385;28;43441;-70
2023/05/16 09:22:40;;;;;;;1.70;1.70;;;20.00;70.40;;;;;;5070213;28;45066;-70
2023/05/16 09:25:11;;;;;;;1.80;1.70;;;20.00;70.60;;;;;;5083216;28;43397;-70
2023/05/16 09:27:56;;;;;;;1.73;1.70;;;20.00;70.80;;;;;;5070748;28;43494;-70
2023/05/16 09:30:27;;;;;;;1.50;1.50;;;20.00;70.60;;;;;;5084929;28;43537;-70
2023/05/16 09:32:55;;;;;;;1.70;1.70;;;20.00;70.70;;;;;;5087045;28;43961;-70
2023/05/16 09:35:23;;;;;;;1.67;1.67;;;20.00;70.80;;;;;;5079472;28;43430;-70
2023/05/16 09:38:13;;;;;;;1.67;1.67;;;19.90;70.80;;;;;;5084385;28;43391;-70
2023/05/16 09:40:43;;;;;;;1.43;1.43;;;19.90;71.10;;;;;;5084270;28;43376;-70
2023/05/16 09:43:11;;;;;;;1.80;1.80;;;19.80;70.90;;;;;;5086338;28;43719;-70
2023/05/16 09:45:39;;;;;;;1.70;1.70;;;19.90;71.00;;;;;;5081161;27;43973;-70
2023/05/16 09:48:09;;;;;;;2.00;1.93;;;19.80;70.90;;;;;;5077228;28;43968;-70
2023/05/16 09:50:37;;;;;;;1.80;1.80;;;19.80;71.10;;;;;;5079032;28;43445;-70
2023/05/16 09:53:06;;;;;;;1.63;1.63;;;19.80;71.30;;;;;;5087399;28;43755;-69
2023/05/16 09:55:34;;;;;;;1.63;1.60;;;19.80;71.10;;;;;;5080026;28;44407;-70
2023/05/16 09:58:03;;;;;;;1.50;1.50;;;19.80;71.10;;;;;;5081908;28;43363;-70
2023/05/16 10:00:32;;;;;;;1.70;1.70;;;19.80;71.10;;;;;;5078713;28;44966;-69
2023/05/16 10:03:01;;;;;;;1.60;1.60;;;19.80;71.20;;;;;;5079258;27;46790;-70
2023/05/16 10:05:33;;;;;;;1.60;1.60;;;19.80;71.40;;;;;;5071196;28;43368;-71
2023/05/16 10:08:04;;;;;;;1.70;1.70;;;19.80;71.10;;;;;;5068223;28;43356;-70
2023/05/16 10:10:34;;;;;;;1.40;1.40;;;19.90;70.90;;;;;;5087497;27;43437;-72
2023/05/16 10:13:07;;;;;;;1.50;1.50;;;20.10;70.50;;;;;;5076092;28;43849;-72
2023/05/16 10:15:36;;;;;;;1.43;1.43;;;20.20;70.20;;;;;;5084028;27;43417;-70
2023/05/16 10:18:06;;;;;;;1.50;1.50;;;20.20;70.00;;;;;;5077097;28;43400;-70
2023/05/16 10:20:35;;;;;;;1.43;1.43;;;20.20;70.00;;;;;;5088323;27;44095;-70
2023/05/16 10:23:03;;;;;;;1.90;1.90;;;20.10;70.10;;;;;;5086515;28;43934;-71
2023/05/16 10:25:33;;;;;;;1.60;1.60;;;20.00;70.20;;;;;;5083553;28;43457;-70
2023/05/16 10:28:01;;;;;;;1.70;1.70;;;20.00;70.70;;;;;;5084569;28;43421;-70
2023/05/16 10:30:31;;;;;;;1.87;1.83;;;20.00;70.80;;;;;;5083241;28;43358;-70
2023/05/16 10:32:59;;;;;;;1.57;1.57;;;19.90;70.60;;;;;;5087369;28;43652;-70
2023/05/16 10:35:27;;;;;;;1.50;1.50;;;19.90;70.70;;;;;;5083508;27;43993;-70
2023/05/16 10:37:56;;;;;;;1.60;1.60;;;19.90;70.80;;;;;;5085925;27;43481;-70
2023/05/16 10:40:23;;;;;;;1.50;1.50;;;19.80;71.10;;;;;;5077774;28;43974;-70
2023/05/16 10:42:55;;;;;;;1.50;1.50;;;19.80;71.10;;;;;;5079377;28;45794;-70
2023/05/16 10:45:24;;;;;;;1.80;1.80;;;19.90;70.90;;;;;;5077451;28;43458;-70
2023/05/16 10:47:54;;;;;;;1.50;1.50;;;20.00;70.80;;;;;;5080915;28;43512;-70
2023/05/16 10:50:36;;;;;;;1.70;1.70;;;20.00;70.60;;;;;;5078315;27;44031;-70
2023/05/16 10:53:18;;;;;;;1.50;1.50;;;20.00;70.60;;;;;;5077081;28;43913;-70
2023/05/16 10:55:51;;;;;;;1.50;1.50;;;19.90;70.80;;;;;;5074600;28;44685;-69
2023/05/16 10:58:23;;;;;;;1.20;1.20;;;19.90;70.70;;;;;;5081698;27;44078;-69
2023/05/16 11:01:11;;;;;;;1.70;1.60;;;19.90;70.60;;;;;;5072386;28;43467;-69
2023/05/16 11:03:45;;;;;;;1.73;1.63;;;19.90;70.80;;;;;;5079323;28;43903;-69
2023/05/16 11:06:13;;;;;;;1.40;1.40;;;19.80;70.90;;;;;;5086774;28;44994;-69
2023/05/16 11:08:57;;;;;;;1.57;1.57;;;19.80;71.10;;;;;;5083433;27;43524;-69
2023/05/16 11:11:42;;;;;;;1.53;1.50;;;19.80;70.90;;;;;;5076101;28;43475;-69
2023/05/16 11:14:20;;;;;;;1.60;1.60;;;19.80;70.90;;;;;;5076621;27;45593;-69
2023/05/16 11:16:49;;;;;;;1.60;1.60;;;19.80;71.00;;;;;;5079934;27;44749;-69
2023/05/16 11:19:33;;;;;;;1.73;1.63;;;19.80;71.20;;;;;;5084778;28;43515;-69
2023/05/16 11:22:08;;;;;;;1.80;1.70;;;19.70;71.20;;;;;;5073092;28;44012;-70
2023/05/16 11:24:37;;;;;;;1.77;1.77;;;19.80;71.90;;;;;;5079934;28;45724;-70
2023/05/16 11:27:05;;;;;;;1.40;1.40;;;19.70;71.10;;;;;;5085384;27;43472;-69
2023/05/16 11:29:34;;;;;;;1.60;1.60;;;19.70;71.10;;;;;;5075854;28;43302;-69
2023/05/16 11:32:03;;;;;;;1.43;1.43;;;19.70;71.40;;;;;;5083677;27;43613;-69
2023/05/16 11:34:36;;;;;;;1.43;1.43;;;19.70;71.40;;;;;;5084539;27;43883;-69
2023/05/16 11:37:04;;;;;;;1.50;1.50;;;19.80;71.20;;;;;;5084106;28;44772;-69
2023/05/16 11:39:33;;;;;;;1.40;1.40;;;20.00;70.80;;;;;;5081368;28;43402;-72
2023/05/16 11:42:01;;;;;;;1.53;1.53;;;20.10;70.40;;;;;;5080020;27;43399;-69
2023/05/16 11:44:29;;;;;;;1.40;1.40;;;20.20;70.20;;;;;;5087870;28;43932;-69
2023/05/16 11:46:57;;;;;;;1.63;1.63;;;20.10;69.90;;;;;;5080242;28;44146;-69
2023/05/16 11:49:27;;;;;;;1.10;1.10;;;20.10;70.00;;;;;;5077663;28;43559;-69
2023/05/16 11:51:56;;;;;;;1.60;1.60;;;20.00;70.10;;;;;;5084629;27;43960;-69
2023/05/16 11:54:24;;;;;;;1.80;1.80;;;20.00;70.40;;;;;;5083591;28;43747;-69
2023/05/16 11:56:52;;;;;;;1.30;1.30;;;19.90;70.70;;;;;;5085768;27;44080;-69
2023/05/16 11:59:20;;;;;;;1.20;1.20;;;19.90;70.60;;;;;;5083765;28;43390;-69
2023/05/16 12:01:49;;;;;;;1.20;1.20;;;19.90;70.70;;;;;;5084730;27;43424;-69
2023/05/16 12:04:18;;;;;;;1.53;1.53;;;19.80;70.80;;;;;;5070176;27;43858;-70
2023/05/16 12:07:00;;;;;;;1.40;1.40;;;19.80;70.90;;;;;;5064404;28;43445;-69
2023/05/16 12:09:28;;;;;;;1.57;1.57;;;19.80;71.20;;;;;;5079317;28;43339;-69
2023/05/16 12:11:56;;;;;;;1.40;1.40;;;19.80;71.20;;;;;;5077310;28;43427;-70
2023/05/16 12:14:24;;;;;;;1.30;1.30;;;19.90;71.00;;;;;;5080490;28;45657;-70
2023/05/16 12:16:53;;;;;;;1.33;1.33;;;20.00;70.90;;;;;;5080122;28;44620;-70
2023/05/16 12:19:21;;;;;;;1.50;1.40;;;19.90;70.60;;;;;;5079721;28;43479;-70
2023/05/16 12:21:53;;;;;;;1.43;1.43;;;19.90;70.60;;;;;;5075527;28;43439;-70
2023/05/16 12:24:22;;;;;;;1.27;1.27;;;19.90;71.00;;;;;;5075593;28;46017;-70
2023/05/16 12:26:50;;;;;;;1.47;1.47;;;19.90;70.80;;;;;;5080254;27;43365;-70
2023/05/16 12:29:18;;;;;;;1.20;1.20;;;19.80;70.70;;;;;;5078368;28;43376;-70
2023/05/16 12:31:46;;;;;;;1.40;1.40;;;19.80;70.70;;;;;;5086752;28;43438;-70
2023/05/16 12:34:18;;;;;;;1.20;1.20;;;19.80;70.90;;;;;;5078072;28;43691;-70
2023/05/16 12:36:46;;;;;;;1.20;1.20;;;19.80;71.10;;;;;;5076064;28;43385;-70
2023/05/16 12:39:15;;;;;;;1.40;1.40;;;19.80;71.10;;;;;;5073216;28;43428;-70
2023/05/16 12:41:44;;;;;;;1.40;1.40;;;19.80;71.10;;;;;;5071491;28;43386;-70
2023/05/16 12:44:13;;;;;;;1.30;1.30;;;19.80;71.10;;;;;;5073212;28;45570;-71
2023/05/16 12:46:42;;;;;;;1.33;1.33;;;19.70;71.10;;;;;;5079951;28;44762;-70
2023/05/16 12:49:10;;;;;;;1.40;1.40;;;19.70;71.10;;;;;;5077375;28;43756;-70
2023/05/16 12:51:38;;;;;;;1.30;1.30;;;19.70;71.40;;;;;;5080025;28;43549;-70
2023/05/16 12:54:10;;;;;;;1.30;1.30;;;19.80;71.40;;;;;;5071286;28;45660;-70
2023/05/16 12:56:39;;;;;;;1.33;1.33;;;19.90;71.00;;;;;;5069518;28;43960;-70
2023/05/16 12:59:08;;;;;;;1.20;1.20;;;20.00;70.60;;;;;;5081207;27;43411;-70